首页
METAR-TAF:

METAR-TAF

机场 :

St. Catharines, 安大略省, 加拿大

纬度: 43-12N, 经度: 079-10W, 海拔: 98米

当前天气观测

该预报发布于45分钟前的17:00 UTC
风速5节,风向西转西北
温度 5°C
湿度 87%
气压 1020 hPa
能見度: 8.0公里
阴天层高于7000英尺
轻雾

METAR: CYSN 201700Z 29005KT 5SM BR OVC070 05/03 A3011 RMK AC8 SLP201

时间: 12:45 (17:45 UTC)

预报

该预报发布于1小时和38分钟前的16:07 UTC
预报有效从20日的 16点(UTC)到 21日的 02点(UTC)
风速6节,风向西转西北
能見度: 10公里
少量云层高于900英尺
阴天层高于5000英尺
短暂存在
从 20日的 16点(UTC)到 20日的 18点(UTC)
能見度: 6.4公里
轻雾
从 20日的 1800点(UTC)
风速6节,风向西
能見度: 10公里
多云层高于2500英尺
短暂存在
从 20日的 18点(UTC)到 20日的 20点(UTC)
多云层高于2000英尺
从 20日的 2000点(UTC)
风速8节,风向西
能見度: 10公里
散云层高于2000英尺
短暂存在
从 20日的 20点(UTC)到 21日的 02点(UTC)
多云层高于2000英尺

TAF: CYSN 201607Z 2016/2102 30006KT P6SM FEW009 OVC050 TEMPO 2016/2018 4SM BR FM201800 28006KT P6SM BKN025 TEMPO 2018/2020 BKN020 FM202000 26008KT P6SM SCT020 TEMPO 2020/2102 BKN020 RMK NXT FCST BY 202000Z

超过4000个机场的气象观测和天气预报(METAR&TAF报告)。

可查询的气象台以黄色和红色小点在地图上表示。

将鼠标移到小点上方,可查看气象台名称。

然后点击查看天气观测和预报。

如需切换地图:点击带黑十字的绿色按钮放大地图;点击带横线的绿色按钮缩小地图;或者点击绿色箭头查看邻近地区的地图。


METAR-TAF: